Terminal Aerodrome Forecast
Issued by NWS Binghamton, NY

Home | Current Version | Previous Version | Text Only | Print | Product List | Glossary On
Versions: 1 2 3 4 5 6 7 8 9 10 11 12 13 14 15 16 17 18 19 20
822
FTUS41 KBGM 280520
TAFBGM
TAF
KBGM 280520Z 2806/2906 00000KT P6SM SKC
     FM281400 24004KT P6SM FEW050 SCT200
     FM282200 VRB03KT P6SM SCT050 BKN120 PROB30 2823/2905 5SM -SHRA
      BKN050=

USA.gov is the U.S. government's official web portal to all federal, state and local government web resources and services.